Portrush, United Kingdom
Current Conditions -  °F | °C
As of 7:50 PM on Sunday 23 Nov 2014 (Local Time) from EGAE Reporting Station
Scattered Clouds Scattered Clouds  
Wind Chill: 36°   Ceiling: Unl
Heat Index: 41°   Visibility: 6mi
Dew Point: 39°   Wind: 8mph
Humidity: 93%   Direction: 230°SW
Pressure: 30.09"   Gusts: NA
Location:  55.2°N, 6.65°W
Report Text: EGAE 231950Z 23007KT 9999 FEW039 SCT048 05/04 Q1019
Loading
Personal Weather Stations






























Interactive Weather Map New forecast layout! Learn more

10-Day Weather Forecast

Advertisements
Track Severe Weather on mobile